createdAt,value
2022-08-20T00:01:44.456Z,100127.25
2022-08-20T00:04:12.832Z,100129.47
2022-08-20T00:06:41.874Z,100123.03
2022-08-20T00:09:11.370Z,100138.34
2022-08-20T00:11:39.362Z,100132.22
2022-08-20T00:14:08.288Z,100126.19
2022-08-20T00:16:38.891Z,100128.97
2022-08-20T00:19:09.425Z,100135.16
2022-08-20T00:21:38.014Z,100136.03
2022-08-20T00:24:06.650Z,100141.59
2022-08-20T00:26:36.054Z,100131.16
2022-08-20T00:29:05.322Z,100134.84
2022-08-20T00:31:33.377Z,100141.97
2022-08-20T00:34:01.497Z,100132.44
2022-08-20T00:36:32.244Z,100133.88
2022-08-20T00:39:01.766Z,100134.88
2022-08-20T00:41:31.082Z,100131.84
2022-08-20T00:44:11.025Z,100140.81
2022-08-20T00:46:40.739Z,100125.03
2022-08-20T00:49:22.284Z,100132.19
2022-08-20T00:51:53.657Z,100124.81
2022-08-20T00:54:25.751Z,100128.25
2022-08-20T00:56:58.838Z,100129.00
2022-08-20T00:59:31.150Z,100127.13
2022-08-20T01:02:01.192Z,100122.53
2022-08-20T01:04:33.765Z,100121.34
2022-08-20T01:07:02.089Z,100117.81
2022-08-20T01:09:49.629Z,100111.34
2022-08-20T01:12:19.539Z,100117.56
2022-08-20T01:14:49.108Z,100109.91
2022-08-20T01:17:22.284Z,100121.25
2022-08-20T01:19:55.580Z,100123.69
2022-08-20T01:22:47.250Z,100114.66
2022-08-20T01:25:23.893Z,100115.34
2022-08-20T01:27:55.520Z,100117.00
2022-08-20T01:30:26.111Z,100108.94
2022-08-20T01:32:54.227Z,100116.78
2022-08-20T01:35:23.465Z,100107.44
2022-08-20T01:37:51.583Z,100113.19
2022-08-20T01:40:45.855Z,100113.19
2022-08-20T01:43:15.729Z,100104.41
2022-08-20T01:45:45.344Z,100105.09
2022-08-20T01:48:17.631Z,100108.72
2022-08-20T01:50:55.518Z,100109.91
2022-08-20T01:53:29.819Z,100103.78
2022-08-20T01:55:57.856Z,100099.66
2022-08-20T01:58:29.738Z,100099.25
2022-08-20T02:00:58.068Z,100097.44
2022-08-20T02:03:26.410Z,100101.97
2022-08-20T02:05:54.594Z,100098.72
2022-08-20T02:08:23.725Z,100103.00
2022-08-20T02:10:51.785Z,100110.94
2022-08-20T02:13:20.010Z,100111.06
2022-08-20T02:15:49.578Z,100099.53
2022-08-20T02:18:17.850Z,100107.66
2022-08-20T02:20:46.836Z,100107.19
2022-08-20T02:23:15.717Z,100106.81
2022-08-20T02:25:47.498Z,100100.88
2022-08-20T02:28:19.495Z,100105.53
2022-08-20T02:30:51.494Z,100102.09
2022-08-20T02:33:24.114Z,100102.72
2022-08-20T02:35:56.553Z,100109.66
2022-08-20T02:38:25.036Z,100108.56
2022-08-20T02:40:53.096Z,100118.88
2022-08-20T02:43:21.676Z,100108.69
2022-08-20T02:45:51.705Z,100099.41
2022-08-20T02:48:23.179Z,100108.09
2022-08-20T02:50:54.856Z,100098.59
2022-08-20T02:53:23.554Z,100100.97
2022-08-20T02:55:52.033Z,100093.22
2022-08-20T02:58:21.334Z,100087.19
2022-08-20T03:00:51.727Z,100087.44
2022-08-20T03:03:22.917Z,100091.09
2022-08-20T03:05:54.492Z,100084.53
2022-08-20T03:08:23.879Z,100091.19
2022-08-20T03:10:52.584Z,100092.09
2022-08-20T03:13:21.694Z,100103.50
2022-08-20T03:15:57.914Z,100111.28
2022-08-20T03:18:27.948Z,100112.44
2022-08-20T03:20:56.022Z,100101.56
2022-08-20T03:23:24.122Z,100103.78
2022-08-20T03:25:52.137Z,100094.72
2022-08-20T03:28:20.441Z,100102.81
2022-08-20T03:30:51.619Z,100099.59
2022-08-20T03:33:20.493Z,100103.91
2022-08-20T03:35:48.968Z,100102.63
2022-08-20T03:38:20.743Z,100110.75
2022-08-20T03:41:00.914Z,100119.19
2022-08-20T03:43:28.954Z,100127.66
2022-08-20T03:45:58.285Z,100122.72
2022-08-20T03:48:26.473Z,100114.59
2022-08-20T03:50:56.712Z,100123.72
2022-08-20T03:53:24.786Z,100134.03
2022-08-20T03:55:59.318Z,100129.06
2022-08-20T03:58:34.842Z,100124.47
2022-08-20T04:01:07.789Z,100134.72
2022-08-20T04:03:58.762Z,100129.75
2022-08-20T04:06:27.855Z,100139.66
2022-08-20T04:08:56.394Z,100138.66
2022-08-20T04:11:24.860Z,100139.75
2022-08-20T04:13:52.968Z,100133.28
2022-08-20T04:16:23.855Z,100135.44
2022-08-20T04:18:56.255Z,100131.56
2022-08-20T04:21:30.961Z,100132.75
2022-08-20T04:24:01.634Z,100130.00
2022-08-20T04:26:29.740Z,100130.41
2022-08-20T04:28:57.781Z,100137.56
2022-08-20T04:31:33.610Z,100139.41
2022-08-20T04:34:02.373Z,100142.25
2022-08-20T04:36:30.792Z,100135.50
2022-08-20T04:38:58.852Z,100150.69
2022-08-20T04:41:26.836Z,100143.09
2022-08-20T04:43:56.500Z,100144.34
2022-08-20T04:46:29.021Z,100138.63
2022-08-20T04:48:58.350Z,100131.47
2022-08-20T04:51:27.061Z,100138.00
2022-08-20T04:53:56.466Z,100143.25
2022-08-20T04:56:27.090Z,100147.25
2022-08-20T04:58:57.507Z,100144.75
2022-08-20T05:01:27.707Z,100156.53
2022-08-20T05:03:57.233Z,100157.06
2022-08-20T05:06:28.704Z,100157.00
2022-08-20T05:08:59.111Z,100154.25
2022-08-20T05:11:34.881Z,100153.69
2022-08-20T05:14:07.748Z,100155.75
2022-08-20T05:16:40.669Z,100150.28
2022-08-20T05:19:11.349Z,100151.34
2022-08-20T05:21:39.918Z,100153.50
2022-08-20T05:24:08.650Z,100138.16
2022-08-20T05:26:36.860Z,100147.81
2022-08-20T05:29:06.842Z,100136.75
2022-08-20T05:31:35.705Z,100134.09
2022-08-20T05:34:10.034Z,100140.06
2022-08-20T05:36:40.212Z,100129.59
2022-08-20T05:39:08.995Z,100136.75
2022-08-20T05:41:37.903Z,100140.63
2022-08-20T05:44:10.067Z,100142.22
2022-08-20T05:46:40.561Z,100141.97
2022-08-20T05:49:11.094Z,100136.19
2022-08-20T05:51:39.406Z,100134.22
2022-08-20T05:54:08.266Z,100130.47
2022-08-20T05:56:37.299Z,100139.13
2022-08-20T05:59:07.456Z,100136.75
2022-08-20T06:01:38.883Z,100137.59
2022-08-20T06:04:24.929Z,100141.00
2022-08-20T06:06:55.857Z,100132.66
2022-08-20T06:09:30.753Z,100132.06
2022-08-20T06:12:00.695Z,100129.69
2022-08-20T06:14:28.705Z,100131.09
2022-08-20T06:16:57.680Z,100123.25
2022-08-20T06:19:27.257Z,100133.69
2022-08-20T06:22:02.530Z,100126.06
2022-08-20T06:24:45.937Z,100135.75
2022-08-20T06:27:16.037Z,100132.88
2022-08-20T06:29:44.137Z,100137.31
2022-08-20T06:32:12.169Z,100136.31
2022-08-20T06:34:50.293Z,100133.16
2022-08-20T06:37:22.736Z,100135.81
2022-08-20T06:39:51.705Z,100142.06
2022-08-20T06:42:22.600Z,100140.09
2022-08-20T06:44:51.308Z,100134.78
2022-08-20T06:47:20.601Z,100133.81
2022-08-20T06:49:49.698Z,100140.81
2022-08-20T06:52:18.270Z,100142.44
2022-08-20T06:54:47.779Z,100138.38
2022-08-20T06:57:16.006Z,100141.59
2022-08-20T06:59:44.054Z,100137.75
2022-08-20T07:02:17.208Z,100129.38
2022-08-20T07:04:45.658Z,100128.03
2022-08-20T07:07:18.583Z,100131.69
2022-08-20T07:09:48.057Z,100129.16
2022-08-20T07:12:16.041Z,100130.34
2022-08-20T07:14:44.039Z,100127.53
2022-08-20T07:17:12.569Z,100129.44
2022-08-20T07:19:40.653Z,100114.97
2022-08-20T07:22:09.106Z,100122.91
2022-08-20T07:24:41.141Z,100118.00
2022-08-20T07:27:11.260Z,100121.16
2022-08-20T07:29:56.594Z,100119.38
2022-08-20T07:32:39.512Z,100107.94
2022-08-20T07:35:08.995Z,100113.84
2022-08-20T07:37:40.034Z,100117.59
2022-08-20T07:40:09.826Z,100109.13
2022-08-20T07:42:40.643Z,100114.41
2022-08-20T07:45:10.982Z,100119.72
2022-08-20T07:47:39.566Z,100106.06
2022-08-20T07:50:09.190Z,100115.44
2022-08-20T07:52:37.326Z,100100.22
2022-08-20T07:55:07.036Z,100107.16
2022-08-20T07:57:35.244Z,100108.69
2022-08-20T08:00:05.845Z,100106.69
2022-08-20T08:02:34.246Z,100100.50
2022-08-20T08:05:02.843Z,100096.13
2022-08-20T08:07:31.072Z,100104.09
2022-08-20T08:09:59.715Z,100091.63
2022-08-20T08:12:35.093Z,100087.41
2022-08-20T08:15:05.410Z,100089.31
2022-08-20T08:17:34.370Z,100076.09
2022-08-20T08:20:02.522Z,100081.06
2022-08-20T08:22:31.771Z,100081.91
2022-08-20T08:25:02.524Z,100075.69
2022-08-20T08:27:32.848Z,100078.38
2022-08-20T08:30:00.970Z,100076.72
2022-08-20T08:32:31.506Z,100072.25
2022-08-20T08:34:59.693Z,100072.00
2022-08-20T08:37:30.677Z,100045.00
2022-08-20T08:39:59.121Z,100059.59
2022-08-20T08:42:38.958Z,100051.06
2022-08-20T08:45:11.626Z,100049.78
2022-08-20T08:47:41.580Z,100049.53
2022-08-20T08:50:28.635Z,100036.56
2022-08-20T08:53:08.608Z,100040.84
2022-08-20T08:55:38.706Z,100040.13
2022-08-20T08:58:17.397Z,100041.47
2022-08-20T09:00:52.719Z,100045.25
2022-08-20T09:03:29.975Z,100042.50
2022-08-20T09:06:01.634Z,100041.47
2022-08-20T09:08:34.362Z,100036.91
2022-08-20T09:11:04.510Z,100033.38
2022-08-20T09:13:32.614Z,100044.72
2022-08-20T09:16:01.085Z,100029.03
2022-08-20T09:18:30.512Z,100032.28
2022-08-20T09:20:58.525Z,100022.53
2022-08-20T09:23:26.563Z,100025.81
2022-08-20T09:25:54.962Z,100017.41
2022-08-20T09:28:23.078Z,100020.41
2022-08-20T09:30:52.602Z,100015.78
2022-08-20T09:33:20.785Z,100014.88
2022-08-20T09:35:50.823Z,100006.22
2022-08-20T09:38:18.929Z,100007.34
2022-08-20T09:40:46.970Z,100011.31
2022-08-20T09:43:15.246Z,100007.44
2022-08-20T09:45:43.270Z,100001.47
2022-08-20T09:48:11.287Z,100012.13
2022-08-20T09:50:45.314Z,100003.00
2022-08-20T09:53:16.190Z,100001.44
2022-08-20T09:55:46.347Z,99994.81
2022-08-20T09:58:22.174Z,99980.91
2022-08-20T10:00:50.681Z,99985.34
2022-08-20T10:03:19.146Z,99980.41
2022-08-20T10:05:47.424Z,99973.31
2022-08-20T10:08:17.041Z,99978.97
2022-08-20T10:10:45.258Z,99980.50
2022-08-20T10:13:15.481Z,99991.19
2022-08-20T10:15:43.631Z,99980.13
2022-08-20T10:18:12.576Z,99984.97
2022-08-20T10:20:40.753Z,99985.78
2022-08-20T10:23:08.981Z,99972.81
2022-08-20T10:25:38.571Z,99977.94
2022-08-20T10:28:07.115Z,99972.28
2022-08-20T10:30:36.028Z,99981.44
2022-08-20T10:33:04.154Z,99979.88
2022-08-20T10:35:32.714Z,99975.47
2022-08-20T10:38:00.849Z,99969.59
2022-08-20T10:40:29.200Z,99975.56
2022-08-20T10:42:58.847Z,99964.22
2022-08-20T10:45:26.930Z,99955.56
2022-08-20T10:47:55.060Z,99960.94
2022-08-20T10:50:23.089Z,99953.38
2022-08-20T10:52:51.110Z,99967.94
2022-08-20T10:55:19.372Z,99959.59
2022-08-20T10:57:47.527Z,99956.09
2022-08-20T11:00:19.680Z,99947.97
2022-08-20T11:02:48.158Z,99944.72
2022-08-20T11:05:16.276Z,99942.25
2022-08-20T11:07:50.823Z,99941.72
2022-08-20T11:10:26.467Z,99941.47
2022-08-20T11:12:54.725Z,99937.97
2022-08-20T11:15:24.897Z,99938.78
2022-08-20T11:17:53.714Z,99939.38
2022-08-20T11:20:25.262Z,99934.47
2022-08-20T11:22:53.638Z,99932.88
2022-08-20T11:25:22.305Z,99927.41
2022-08-20T11:27:52.560Z,99918.44
2022-08-20T11:30:26.670Z,99921.63
2022-08-20T11:32:54.806Z,99923.53
2022-08-20T11:35:48.328Z,99925.09
2022-08-20T11:38:14.803Z,99926.88
2022-08-20T11:40:42.781Z,99906.72
2022-08-20T11:43:15.388Z,99926.09
2022-08-20T11:45:46.829Z,99909.66
2022-08-20T11:48:15.426Z,99916.41
2022-08-20T11:50:43.753Z,99914.00
2022-08-20T11:53:12.130Z,99918.59
2022-08-20T11:55:40.370Z,99907.75
2022-08-20T11:58:08.936Z,99901.03
2022-08-20T12:00:37.676Z,99902.59
2022-08-20T12:03:10.405Z,99916.13
2022-08-20T12:05:41.161Z,99908.81
2022-08-20T12:08:09.654Z,99907.75
2022-08-20T12:10:39.063Z,99908.00
2022-08-20T12:13:08.272Z,99904.78
2022-08-20T12:15:37.522Z,99889.41
2022-08-20T12:18:09.736Z,99898.00
2022-08-20T12:20:38.326Z,99891.81
2022-08-20T12:23:06.661Z,99890.22
2022-08-20T12:25:35.068Z,99882.09
2022-08-20T12:28:05.216Z,99868.88
2022-08-20T12:30:34.462Z,99875.38
2022-08-20T12:33:02.722Z,99869.72
2022-08-20T12:35:32.437Z,99861.59
2022-08-20T12:38:04.248Z,99862.09
2022-08-20T12:40:34.026Z,99867.50
2022-08-20T12:43:02.725Z,99857.81
2022-08-20T12:45:32.185Z,99850.22
2022-08-20T12:48:05.762Z,99856.72
2022-08-20T12:50:36.561Z,99851.59
2022-08-20T12:53:05.682Z,99858.34
2022-08-20T12:55:34.649Z,99856.47
2022-08-20T12:58:04.612Z,99863.75
2022-08-20T13:00:34.898Z,99852.41
2022-08-20T13:03:05.024Z,99839.47
2022-08-20T13:05:35.945Z,99842.69
2022-08-20T13:08:07.911Z,99840.53
2022-08-20T13:10:42.485Z,99836.78
2022-08-20T13:13:10.777Z,99838.91
2022-08-20T13:15:39.412Z,99834.03
2022-08-20T13:18:08.086Z,99839.44
2022-08-20T13:20:38.187Z,99837.28
2022-08-20T13:23:07.005Z,99836.19
2022-08-20T13:25:35.594Z,99834.31
2022-08-20T13:28:05.771Z,99828.91
2022-08-20T13:30:37.431Z,99828.66
2022-08-20T13:33:05.747Z,99825.06
2022-08-20T13:35:34.845Z,99826.69
2022-08-20T13:38:04.785Z,99820.78
2022-08-20T13:40:33.012Z,99810.81
2022-08-20T13:43:06.162Z,99801.59
2022-08-20T13:45:35.835Z,99809.16
2022-08-20T13:48:04.575Z,99802.13
2022-08-20T13:50:35.803Z,99798.03
2022-08-20T13:53:05.751Z,99798.81
2022-08-20T13:55:38.597Z,99796.97
2022-08-20T13:58:08.937Z,99788.56
2022-08-20T14:00:37.754Z,99790.16
2022-08-20T14:03:07.453Z,99803.13
2022-08-20T14:05:37.049Z,99796.31
2022-08-20T14:08:13.635Z,99787.47
2022-08-20T14:10:42.944Z,99788.88
2022-08-20T14:13:15.339Z,99777.72
2022-08-20T14:15:43.758Z,99772.31
2022-08-20T14:18:12.100Z,99780.38
2022-08-20T14:20:40.748Z,99777.94
2022-08-20T14:23:10.771Z,99772.03
2022-08-20T14:25:39.328Z,99775.53
2022-08-20T14:28:12.760Z,99773.69
2022-08-20T14:30:41.874Z,99765.78
2022-08-20T14:33:10.582Z,99762.84
2022-08-20T14:35:38.993Z,99769.00
2022-08-20T14:38:08.190Z,99770.38
2022-08-20T14:40:38.254Z,99762.53
2022-08-20T14:43:06.505Z,99770.84
2022-08-20T14:45:34.864Z,99763.06
2022-08-20T14:48:03.387Z,99764.34
2022-08-20T14:50:34.232Z,99767.03
2022-08-20T14:53:03.522Z,99764.25
2022-08-20T14:55:36.027Z,99758.44
2022-08-20T14:58:09.731Z,99761.25
2022-08-20T15:00:38.119Z,99766.56
2022-08-20T15:03:06.587Z,99772.03
2022-08-20T15:05:35.195Z,99772.25
2022-08-20T15:08:10.613Z,99768.69
2022-08-20T15:10:40.222Z,99775.47
2022-08-20T15:13:10.083Z,99770.00
2022-08-20T15:15:39.557Z,99767.66
2022-08-20T15:18:08.685Z,99770.75
2022-08-20T15:20:38.088Z,99768.03
2022-08-20T15:23:06.713Z,99765.75
2022-08-20T15:25:37.933Z,99761.94
2022-08-20T15:28:08.449Z,99777.53
2022-08-20T15:30:39.235Z,99773.00
2022-08-20T15:33:07.488Z,99775.47
2022-08-20T15:35:35.769Z,99764.16
2022-08-20T15:38:04.283Z,99773.91
2022-08-20T15:40:33.927Z,99776.03
2022-08-20T15:43:04.041Z,99781.41
2022-08-20T15:45:33.135Z,99779.16
2022-08-20T15:48:09.958Z,99778.59
2022-08-20T15:50:57.306Z,99774.25
2022-08-20T15:53:31.349Z,99775.06
2022-08-20T15:56:05.679Z,99784.19
2022-08-20T15:58:40.222Z,99783.09
2022-08-20T16:01:25.093Z,99783.59
2022-08-20T16:04:29.738Z,99786.56
2022-08-20T16:07:03.773Z,99781.59
2022-08-20T16:09:44.218Z,99782.28
2022-08-20T16:12:17.072Z,99788.53
2022-08-20T16:14:49.174Z,99783.53
2022-08-20T16:17:23.514Z,99790.13
2022-08-20T16:19:59.416Z,99792.16
2022-08-20T16:22:30.659Z,99797.13
2022-08-20T16:24:59.293Z,99799.91
2022-08-20T16:27:35.782Z,99794.19
2022-08-20T16:30:07.696Z,99800.97
2022-08-20T16:32:41.108Z,99798.75
2022-08-20T16:35:29.653Z,99796.84
2022-08-20T16:38:04.359Z,99799.13
2022-08-20T16:40:36.751Z,99800.63
2022-08-20T16:43:07.456Z,99770.94
2022-08-20T16:45:43.500Z,99803.84
2022-08-20T16:48:17.398Z,99806.13
2022-08-20T16:50:57.647Z,99804.84
2022-08-20T16:53:27.170Z,99815.22
2022-08-20T16:55:57.472Z,99809.16
2022-08-20T16:58:26.069Z,99823.75
2022-08-20T17:01:08.612Z,99814.38
2022-08-20T17:03:39.977Z,99827.66
2022-08-20T17:06:20.588Z,99832.50
2022-08-20T17:08:51.311Z,99829.88
2022-08-20T17:11:25.658Z,99828.06
2022-08-20T17:14:05.653Z,99829.34
2022-08-20T17:16:36.217Z,99837.50
2022-08-20T17:19:15.642Z,99832.75
2022-08-20T17:21:45.737Z,99822.78
2022-08-20T17:24:24.086Z,99833.63
2022-08-20T17:27:00.146Z,99829.28
2022-08-20T17:29:31.797Z,99834.28
2022-08-20T17:32:02.170Z,99821.84
2022-08-20T17:34:32.970Z,99837.09
2022-08-20T17:37:08.675Z,99837.66
2022-08-20T17:39:46.764Z,99831.72
2022-08-20T17:42:18.960Z,99845.53
2022-08-20T17:44:55.103Z,99843.38
2022-08-20T17:47:33.475Z,99830.38
2022-08-20T17:50:04.545Z,99840.19
2022-08-20T17:52:43.023Z,99842.16
2022-08-20T17:55:13.241Z,99837.72
2022-08-20T17:57:45.097Z,99838.63
2022-08-20T18:00:17.205Z,99833.16
2022-08-20T18:02:45.600Z,99833.03
2022-08-20T18:05:20.187Z,99824.09
2022-08-20T18:08:03.559Z,99826.50
2022-08-20T18:10:35.739Z,99823.94
2022-08-20T18:13:16.298Z,99815.47
2022-08-20T18:15:51.803Z,99815.28
2022-08-20T18:18:29.623Z,99837.56
2022-08-20T18:21:30.495Z,99830.78
2022-08-20T18:24:05.715Z,99842.25
2022-08-20T18:26:41.914Z,99846.84
2022-08-20T18:29:13.822Z,99848.63
2022-08-20T18:31:46.326Z,99858.03
2022-08-20T18:34:17.711Z,99859.22
2022-08-20T18:36:56.864Z,99860.31
2022-08-20T18:39:28.777Z,99870.06
2022-08-20T18:42:00.252Z,99868.16
2022-08-20T18:44:31.488Z,99883.97
2022-08-20T18:47:02.100Z,99887.28
2022-08-20T18:49:33.530Z,99881.94
2022-08-20T18:52:11.143Z,99877.56
2022-08-20T18:54:44.615Z,99878.53
2022-08-20T18:57:22.779Z,99886.09
2022-08-20T18:59:58.435Z,99887.06
2022-08-20T19:02:32.685Z,99892.41
2022-08-20T19:05:05.073Z,99895.59
2022-08-20T19:07:47.911Z,99887.78
2022-08-20T19:10:48.805Z,99893.13
2022-08-20T19:13:46.703Z,99899.81
2022-08-20T19:16:20.418Z,99898.22
2022-08-20T19:18:51.697Z,99902.75
2022-08-20T19:21:24.833Z,99893.88
2022-08-20T19:23:55.395Z,99900.31
2022-08-20T19:26:31.026Z,99907.97
2022-08-20T19:29:01.845Z,99908.84
2022-08-20T19:31:32.488Z,99907.06
2022-08-20T19:34:20.423Z,99904.41
2022-08-20T19:36:56.531Z,99889.41
2022-08-20T19:39:26.146Z,99904.75
2022-08-20T19:42:00.125Z,99914.91
2022-08-20T19:44:40.769Z,99901.84
2022-08-20T19:47:19.408Z,99896.63
2022-08-20T19:49:58.597Z,99910.41
2022-08-20T19:52:38.649Z,99922.13
2022-08-20T19:55:16.351Z,99903.34
2022-08-20T19:57:53.017Z,99906.97
2022-08-20T20:00:22.442Z,99899.09
2022-08-20T20:02:50.630Z,99913.47
2022-08-20T20:05:19.418Z,99914.41
2022-08-20T20:07:50.598Z,99905.00
2022-08-20T20:10:32.685Z,99899.28
2022-08-20T20:13:10.203Z,99899.81
2022-08-20T20:15:39.175Z,99894.63
2022-08-20T20:18:07.916Z,99897.63
2022-08-20T20:20:55.763Z,99897.84
2022-08-20T20:23:28.228Z,99897.16
2022-08-20T20:26:18.225Z,99900.31
2022-08-20T20:28:50.945Z,99902.63
2022-08-20T20:31:24.034Z,99898.88
2022-08-20T20:33:55.755Z,99881.84
2022-08-20T20:36:35.049Z,99890.19
2022-08-20T20:39:11.245Z,99874.88
2022-08-20T20:41:52.141Z,99908.09
2022-08-20T20:44:24.268Z,99904.22
2022-08-20T20:46:56.966Z,99901.56
2022-08-20T20:49:27.684Z,99890.00
2022-08-20T20:51:59.962Z,99902.13
2022-08-20T20:54:31.049Z,99889.44
2022-08-20T20:57:03.352Z,99911.44
2022-08-20T20:59:37.550Z,99916.16
2022-08-20T21:02:06.029Z,99923.53
2022-08-20T21:04:34.512Z,99921.09
2022-08-20T21:07:08.434Z,99923.94
2022-08-20T21:09:39.142Z,99931.28
2022-08-20T21:12:08.802Z,99934.56
2022-08-20T21:14:38.885Z,99932.09
2022-08-20T21:17:09.739Z,99930.25
2022-08-20T21:19:40.208Z,99935.84
2022-08-20T21:22:13.509Z,99936.31
2022-08-20T21:24:41.689Z,99942.09
2022-08-20T21:27:12.403Z,99940.03
2022-08-20T21:29:42.309Z,99938.00
2022-08-20T21:32:12.412Z,99939.47
2022-08-20T21:34:43.367Z,99939.47
2022-08-20T21:37:12.078Z,99934.56
2022-08-20T21:39:40.683Z,99951.59
2022-08-20T21:42:28.817Z,99940.53
2022-08-20T21:44:59.654Z,99950.00
2022-08-20T21:47:28.189Z,99947.13
2022-08-20T21:49:56.505Z,99949.63
2022-08-20T21:52:24.730Z,99945.91
2022-08-20T21:54:53.690Z,99943.47
2022-08-20T21:57:24.941Z,99949.22
2022-08-20T21:59:53.782Z,99942.28
2022-08-20T22:02:25.157Z,99944.50
2022-08-20T22:04:54.112Z,99945.94
2022-08-20T22:07:23.314Z,99949.22
2022-08-20T22:09:51.439Z,99948.59
2022-08-20T22:12:23.229Z,99947.59
2022-08-20T22:14:51.360Z,99945.97
2022-08-20T22:17:19.513Z,99937.53
2022-08-20T22:19:49.313Z,99941.00
2022-08-20T22:22:24.099Z,99947.97
2022-08-20T22:24:52.227Z,99936.66
2022-08-20T22:27:20.222Z,99940.13
2022-08-20T22:29:48.818Z,99944.63
2022-08-20T22:32:16.894Z,99946.84
2022-08-20T22:34:45.546Z,99935.63
2022-08-20T22:37:16.181Z,99939.50
2022-08-20T22:39:44.444Z,99936.00
2022-08-20T22:42:12.657Z,99946.41
2022-08-20T22:44:41.014Z,99942.34
2022-08-20T22:47:10.133Z,99940.91
2022-08-20T22:49:41.839Z,99930.88
2022-08-20T22:52:12.050Z,99927.59
2022-08-20T22:54:44.634Z,99927.00
2022-08-20T22:57:13.303Z,99924.09
2022-08-20T22:59:45.863Z,99922.91
2022-08-20T23:02:19.738Z,99922.50
2022-08-20T23:04:48.146Z,99918.59
2022-08-20T23:07:20.050Z,99921.88
2022-08-20T23:09:49.758Z,99930.88
2022-08-20T23:12:17.865Z,99932.31
2022-08-20T23:14:45.982Z,99926.56
2022-08-20T23:17:19.338Z,99925.75
2022-08-20T23:19:49.330Z,99934.72
2022-08-20T23:22:17.632Z,99927.16
2022-08-20T23:24:46.014Z,99930.22
2022-08-20T23:27:19.198Z,99935.09
2022-08-20T23:29:47.794Z,99934.66
2022-08-20T23:32:15.906Z,99930.34
2022-08-20T23:34:44.378Z,99938.41
2022-08-20T23:37:13.116Z,99936.94
2022-08-20T23:39:41.214Z,99935.75
2022-08-20T23:42:11.134Z,99938.59
2022-08-20T23:44:40.916Z,99946.31
2022-08-20T23:47:09.541Z,99946.31
2022-08-20T23:49:37.586Z,99941.66
2022-08-20T23:52:05.798Z,99946.41
2022-08-20T23:54:34.697Z,99953.09
2022-08-20T23:57:02.803Z,99954.41
2022-08-20T23:59:36.844Z,99959.31
